sensor_id;sensor_type;location;lat;lon;timestamp;pressure;altitude;pressure_sealevel;temperature
4944;BMP280;2487;52.224;11.006;2022-08-21T00:01:03;51548.44;;;-142.39
4944;BMP280;2487;52.224;11.006;2022-08-21T00:03:31;51507.97;;;-142.39
4944;BMP280;2487;52.224;11.006;2022-08-21T00:05:57;51546.41;;;-142.39
4944;BMP280;2487;52.224;11.006;2022-08-21T00:08:23;51554.50;;;-142.39
4944;BMP280;2487;52.224;11.006;2022-08-21T00:10:51;51540.34;;;-142.39
4944;BMP280;2487;52.224;11.006;2022-08-21T00:13:18;51536.31;;;-142.39
4944;BMP280;2487;52.224;11.006;2022-08-21T00:15:45;51546.41;;;-142.39
4944;BMP280;2487;52.224;11.006;2022-08-21T00:18:11;51528.22;;;-142.39
4944;BMP280;2487;52.224;11.006;2022-08-21T00:20:39;51554.50;;;-142.39
4944;BMP280;2487;52.224;11.006;2022-08-21T00:23:05;51522.13;;;-142.39
4944;BMP280;2487;52.224;11.006;2022-08-21T00:25:31;51560.59;;;-142.39
4944;BMP280;2487;52.224;11.006;2022-08-21T00:27:56;51568.69;;;-142.39
4944;BMP280;2487;52.224;11.006;2022-08-21T00:30:25;51544.41;;;-142.39
4944;BMP280;2487;52.224;11.006;2022-08-21T00:32:52;51528.22;;;-142.39
4944;BMP280;2487;52.224;11.006;2022-08-21T00:35:22;51578.78;;;-142.39
4944;BMP280;2487;52.224;11.006;2022-08-21T00:37:48;51558.56;;;-142.39
4944;BMP280;2487;52.224;11.006;2022-08-21T00:40:23;51538.31;;;-142.39
4944;BMP280;2487;52.224;11.006;2022-08-21T00:42:49;51520.13;;;-142.39
4944;BMP280;2487;52.224;11.006;2022-08-21T00:45:15;51554.50;;;-142.39
4944;BMP280;2487;52.224;11.006;2022-08-21T00:47:41;51556.53;;;-142.39
4944;BMP280;2487;52.224;11.006;2022-08-21T00:50:08;51534.28;;;-142.39
4944;BMP280;2487;52.224;11.006;2022-08-21T00:52:36;51576.78;;;-142.39
4944;BMP280;2487;52.224;11.006;2022-08-21T00:55:05;51558.56;;;-142.39
4944;BMP280;2487;52.224;11.006;2022-08-21T00:57:36;51558.56;;;-142.39
4944;BMP280;2487;52.224;11.006;2022-08-21T01:00:08;51566.66;;;-142.39
4944;BMP280;2487;52.224;11.006;2022-08-21T01:02:34;51576.78;;;-142.39
4944;BMP280;2487;52.224;11.006;2022-08-21T01:05:00;51528.22;;;-142.39
4944;BMP280;2487;52.224;11.006;2022-08-21T01:07:26;51590.94;;;-142.39
4944;BMP280;2487;52.224;11.006;2022-08-21T01:09:51;51566.66;;;-142.39
4944;BMP280;2487;52.224;11.006;2022-08-21T01:12:18;51554.50;;;-142.39
4944;BMP280;2487;52.224;11.006;2022-08-21T01:14:44;51590.94;;;-142.39
4944;BMP280;2487;52.224;11.006;2022-08-21T01:17:13;51592.97;;;-142.39
4944;BMP280;2487;52.224;11.006;2022-08-21T01:19:39;51578.78;;;-142.39
4944;BMP280;2487;52.224;11.006;2022-08-21T01:24:52;51574.75;;;-142.39
4944;BMP280;2487;52.224;11.006;2022-08-21T01:27:17;51554.50;;;-142.39
4944;BMP280;2487;52.224;11.006;2022-08-21T01:29:59;51568.69;;;-142.39
4944;BMP280;2487;52.224;11.006;2022-08-21T01:32:26;51558.56;;;-142.39
4944;BMP280;2487;52.224;11.006;2022-08-21T01:34:52;51572.72;;;-142.39
4944;BMP280;2487;52.224;11.006;2022-08-21T01:37:20;51560.59;;;-142.39
4944;BMP280;2487;52.224;11.006;2022-08-21T01:39:46;51572.72;;;-142.39
4944;BMP280;2487;52.224;11.006;2022-08-21T01:42:13;51566.66;;;-142.39
4944;BMP280;2487;52.224;11.006;2022-08-21T01:44:39;51538.31;;;-142.39
4944;BMP280;2487;52.224;11.006;2022-08-21T01:47:08;51613.19;;;-142.39
4944;BMP280;2487;52.224;11.006;2022-08-21T01:49:35;51586.91;;;-142.39
4944;BMP280;2487;52.224;11.006;2022-08-21T01:52:02;51538.31;;;-142.39
4944;BMP280;2487;52.224;11.006;2022-08-21T01:54:28;51617.25;;;-142.39
4944;BMP280;2487;52.224;11.006;2022-08-21T01:56:54;51607.13;;;-142.39
4944;BMP280;2487;52.224;11.006;2022-08-21T01:59:22;51552.50;;;-142.39
4944;BMP280;2487;52.224;11.006;2022-08-21T02:01:48;51580.81;;;-142.39
4944;BMP280;2487;52.224;11.006;2022-08-21T02:04:15;51526.19;;;-142.39
4944;BMP280;2487;52.224;11.006;2022-08-21T02:06:40;51597.00;;;-142.39
4944;BMP280;2487;52.224;11.006;2022-08-21T02:09:08;51580.81;;;-142.39
4944;BMP280;2487;52.224;11.006;2022-08-21T02:11:35;51572.72;;;-142.39
4944;BMP280;2487;52.224;11.006;2022-08-21T02:14:02;51546.41;;;-142.39
4944;BMP280;2487;52.224;11.006;2022-08-21T02:16:28;51544.41;;;-142.39
4944;BMP280;2487;52.224;11.006;2022-08-21T02:18:54;51588.91;;;-142.39
4944;BMP280;2487;52.224;11.006;2022-08-21T02:21:19;51580.81;;;-142.39
4944;BMP280;2487;52.224;11.006;2022-08-21T02:23:45;51586.91;;;-142.39
4944;BMP280;2487;52.224;11.006;2022-08-21T02:26:12;51560.59;;;-142.39
4944;BMP280;2487;52.224;11.006;2022-08-21T02:28:38;51578.78;;;-142.39
4944;BMP280;2487;52.224;11.006;2022-08-21T02:31:06;51560.59;;;-142.39
4944;BMP280;2487;52.224;11.006;2022-08-21T02:33:31;51595.00;;;-142.39
4944;BMP280;2487;52.224;11.006;2022-08-21T02:35:59;51560.59;;;-142.39
4944;BMP280;2487;52.224;11.006;2022-08-21T02:38:33;51615.22;;;-142.39
4944;BMP280;2487;52.224;11.006;2022-08-21T02:41:00;51599.03;;;-142.39
4944;BMP280;2487;52.224;11.006;2022-08-21T02:43:27;51566.66;;;-142.39
4944;BMP280;2487;52.224;11.006;2022-08-21T02:45:54;51574.75;;;-142.39
4944;BMP280;2487;52.224;11.006;2022-08-21T02:48:24;51570.69;;;-142.39
4944;BMP280;2487;52.224;11.006;2022-08-21T02:50:57;51578.78;;;-142.39
4944;BMP280;2487;52.224;11.006;2022-08-21T02:53:23;51572.72;;;-142.39
4944;BMP280;2487;52.224;11.006;2022-08-21T02:55:50;51601.06;;;-142.39
4944;BMP280;2487;52.224;11.006;2022-08-21T02:58:18;51560.59;;;-142.39
4944;BMP280;2487;52.224;11.006;2022-08-21T03:00:45;51582.84;;;-142.39
4944;BMP280;2487;52.224;11.006;2022-08-21T03:03:11;51607.13;;;-142.39
4944;BMP280;2487;52.224;11.006;2022-08-21T03:05:39;51572.72;;;-142.39
4944;BMP280;2487;52.224;11.006;2022-08-21T03:08:07;51631.41;;;-142.39
4944;BMP280;2487;52.224;11.006;2022-08-21T03:10:38;51592.97;;;-142.39
4944;BMP280;2487;52.224;11.006;2022-08-21T03:13:05;51592.97;;;-142.39
4944;BMP280;2487;52.224;11.006;2022-08-21T03:15:32;51550.47;;;-142.39
4944;BMP280;2487;52.224;11.006;2022-08-21T03:17:58;51572.72;;;-142.39
4944;BMP280;2487;52.224;11.006;2022-08-21T03:20:27;51592.97;;;-142.39
4944;BMP280;2487;52.224;11.006;2022-08-21T03:22:54;51566.66;;;-142.39
4944;BMP280;2487;52.224;11.006;2022-08-21T03:25:22;51609.16;;;-142.39
4944;BMP280;2487;52.224;11.006;2022-08-21T03:27:47;51595.00;;;-142.39
4944;BMP280;2487;52.224;11.006;2022-08-21T03:30:15;51554.50;;;-142.39
4944;BMP280;2487;52.224;11.006;2022-08-21T03:32:41;51599.03;;;-142.39
4944;BMP280;2487;52.224;11.006;2022-08-21T03:35:08;51590.94;;;-142.39
4944;BMP280;2487;52.224;11.006;2022-08-21T03:37:35;51582.84;;;-142.39
4944;BMP280;2487;52.224;11.006;2022-08-21T03:40:04;51580.81;;;-142.39
4944;BMP280;2487;52.224;11.006;2022-08-21T03:42:30;51611.19;;;-142.39
4944;BMP280;2487;52.224;11.006;2022-08-21T03:44:55;51641.53;;;-142.39
4944;BMP280;2487;52.224;11.006;2022-08-21T03:47:21;51586.91;;;-142.39
4944;BMP280;2487;52.224;11.006;2022-08-21T03:49:47;51586.91;;;-142.39
4944;BMP280;2487;52.224;11.006;2022-08-21T03:52:13;51578.78;;;-142.39
4944;BMP280;2487;52.224;11.006;2022-08-21T03:54:39;51572.72;;;-142.39
4944;BMP280;2487;52.224;11.006;2022-08-21T03:57:07;51592.97;;;-142.39
4944;BMP280;2487;52.224;11.006;2022-08-21T03:59:33;51609.16;;;-142.39
4944;BMP280;2487;52.224;11.006;2022-08-21T04:02:00;51578.78;;;-142.39
4944;BMP280;2487;52.224;11.006;2022-08-21T04:04:28;51599.03;;;-142.39
4944;BMP280;2487;52.224;11.006;2022-08-21T04:06:56;51590.94;;;-142.39
4944;BMP280;2487;52.224;11.006;2022-08-21T04:09:24;51619.28;;;-142.39
4944;BMP280;2487;52.224;11.006;2022-08-21T04:11:51;51607.13;;;-142.39
4944;BMP280;2487;52.224;11.006;2022-08-21T04:14:17;51613.19;;;-142.39
4944;BMP280;2487;52.224;11.006;2022-08-21T04:16:43;51588.91;;;-142.39
4944;BMP280;2487;52.224;11.006;2022-08-21T04:19:11;51615.22;;;-142.39
4944;BMP280;2487;52.224;11.006;2022-08-21T04:21:40;51588.91;;;-142.39
4944;BMP280;2487;52.224;11.006;2022-08-21T04:24:08;51605.09;;;-142.39
4944;BMP280;2487;52.224;11.006;2022-08-21T04:26:36;51613.19;;;-142.39
4944;BMP280;2487;52.224;11.006;2022-08-21T04:29:04;51568.69;;;-142.39
4944;BMP280;2487;52.224;11.006;2022-08-21T04:31:34;51601.06;;;-142.39
4944;BMP280;2487;52.224;11.006;2022-08-21T04:34:00;51621.28;;;-142.39
4944;BMP280;2487;52.224;11.006;2022-08-21T04:36:26;51619.28;;;-142.39
4944;BMP280;2487;52.224;11.006;2022-08-21T04:38:52;51625.34;;;-142.39
4944;BMP280;2487;52.224;11.006;2022-08-21T04:41:17;51595.00;;;-142.39
4944;BMP280;2487;52.224;11.006;2022-08-21T04:43:43;51572.72;;;-142.39
4944;BMP280;2487;52.224;11.006;2022-08-21T04:46:09;51613.19;;;-142.39
4944;BMP280;2487;52.224;11.006;2022-08-21T04:48:36;51611.19;;;-142.39
4944;BMP280;2487;52.224;11.006;2022-08-21T04:53:53;51607.13;;;-142.39
4944;BMP280;2487;52.224;11.006;2022-08-21T04:59:18;51611.19;;;-142.39
4944;BMP280;2487;52.224;11.006;2022-08-21T05:01:45;51609.16;;;-142.39
4944;BMP280;2487;52.224;11.006;2022-08-21T05:04:13;51635.47;;;-142.39
4944;BMP280;2487;52.224;11.006;2022-08-21T05:06:41;51613.19;;;-142.39
4944;BMP280;2487;52.224;11.006;2022-08-21T05:09:12;51595.00;;;-142.39
4944;BMP280;2487;52.224;11.006;2022-08-21T05:11:39;51623.31;;;-142.39
4944;BMP280;2487;52.224;11.006;2022-08-21T05:14:06;51578.78;;;-142.39
4944;BMP280;2487;52.224;11.006;2022-08-21T05:16:31;51615.22;;;-142.39
4944;BMP280;2487;52.224;11.006;2022-08-21T05:18:57;51631.41;;;-142.39
4944;BMP280;2487;52.224;11.006;2022-08-21T05:21:23;51578.78;;;-142.39
4944;BMP280;2487;52.224;11.006;2022-08-21T05:23:49;51592.97;;;-142.39
4944;BMP280;2487;52.224;11.006;2022-08-21T05:26:15;51599.03;;;-142.39
4944;BMP280;2487;52.224;11.006;2022-08-21T05:28:41;51601.06;;;-142.39
4944;BMP280;2487;52.224;11.006;2022-08-21T05:31:06;51578.78;;;-142.39
4944;BMP280;2487;52.224;11.006;2022-08-21T05:33:32;51592.97;;;-142.39
4944;BMP280;2487;52.224;11.006;2022-08-21T05:35:58;51611.19;;;-142.39
4944;BMP280;2487;52.224;11.006;2022-08-21T05:38:24;51595.00;;;-142.39
4944;BMP280;2487;52.224;11.006;2022-08-21T05:40:51;51570.69;;;-142.39
4944;BMP280;2487;52.224;11.006;2022-08-21T05:43:16;51568.69;;;-142.39
4944;BMP280;2487;52.224;11.006;2022-08-21T05:45:42;51580.81;;;-142.39
4944;BMP280;2487;52.224;11.006;2022-08-21T05:50:35;51619.28;;;-142.39
4944;BMP280;2487;52.224;11.006;2022-08-21T05:53:06;51580.81;;;-142.39
4944;BMP280;2487;52.224;11.006;2022-08-21T05:55:32;51613.19;;;-142.39
4944;BMP280;2487;52.224;11.006;2022-08-21T05:57:58;51605.09;;;-142.39
4944;BMP280;2487;52.224;11.006;2022-08-21T06:00:25;51586.91;;;-142.39
4944;BMP280;2487;52.224;11.006;2022-08-21T06:02:51;51603.09;;;-142.39
4944;BMP280;2487;52.224;11.006;2022-08-21T06:05:17;51582.84;;;-142.39
4944;BMP280;2487;52.224;11.006;2022-08-21T06:07:43;51599.03;;;-142.39
4944;BMP280;2487;52.224;11.006;2022-08-21T06:10:09;51611.19;;;-142.39
4944;BMP280;2487;52.224;11.006;2022-08-21T06:12:35;51530.22;;;-142.39
4944;BMP280;2487;52.224;11.006;2022-08-21T06:15:01;51578.78;;;-142.39
4944;BMP280;2487;52.224;11.006;2022-08-21T06:17:27;51576.78;;;-142.39
4944;BMP280;2487;52.224;11.006;2022-08-21T06:19:53;51607.13;;;-142.39
4944;BMP280;2487;52.224;11.006;2022-08-21T06:22:19;51562.59;;;-142.39
4944;BMP280;2487;52.224;11.006;2022-08-21T06:24:48;51607.13;;;-142.39
4944;BMP280;2487;52.224;11.006;2022-08-21T06:27:14;51568.69;;;-142.39
4944;BMP280;2487;52.224;11.006;2022-08-21T06:29:40;51588.91;;;-142.39
4944;BMP280;2487;52.224;11.006;2022-08-21T06:32:06;51564.63;;;-142.39
4944;BMP280;2487;52.224;11.006;2022-08-21T06:34:36;51576.78;;;-142.39
4944;BMP280;2487;52.224;11.006;2022-08-21T06:37:03;51534.28;;;-142.39
4944;BMP280;2487;52.224;11.006;2022-08-21T06:39:29;51518.09;;;-142.39
4944;BMP280;2487;52.224;11.006;2022-08-21T06:41:55;51578.78;;;-142.39
4944;BMP280;2487;52.224;11.006;2022-08-21T06:44:27;51566.66;;;-142.39
4944;BMP280;2487;52.224;11.006;2022-08-21T06:46:53;51526.19;;;-142.39
4944;BMP280;2487;52.224;11.006;2022-08-21T06:49:18;51548.44;;;-142.39
4944;BMP280;2487;52.224;11.006;2022-08-21T06:51:44;51544.41;;;-142.39
4944;BMP280;2487;52.224;11.006;2022-08-21T06:54:10;51546.41;;;-142.39
4944;BMP280;2487;52.224;11.006;2022-08-21T06:56:35;51542.38;;;-142.39
4944;BMP280;2487;52.224;11.006;2022-08-21T06:59:04;51524.16;;;-142.39
4944;BMP280;2487;52.224;11.006;2022-08-21T07:01:31;51540.34;;;-142.39
4944;BMP280;2487;52.224;11.006;2022-08-21T07:03:56;51501.91;;;-142.39
4944;BMP280;2487;52.224;11.006;2022-08-21T07:06:22;51520.13;;;-142.39
4944;BMP280;2487;52.224;11.006;2022-08-21T07:08:48;51522.13;;;-142.39
4944;BMP280;2487;52.224;11.006;2022-08-21T07:11:23;51489.75;;;-142.39
4944;BMP280;2487;52.224;11.006;2022-08-21T07:13:51;51562.59;;;-142.39
4944;BMP280;2487;52.224;11.006;2022-08-21T07:16:18;51518.09;;;-142.39
4944;BMP280;2487;52.224;11.006;2022-08-21T07:18:44;51518.09;;;-142.39
4944;BMP280;2487;52.224;11.006;2022-08-21T07:21:10;51522.13;;;-142.39
4944;BMP280;2487;52.224;11.006;2022-08-21T07:23:42;51510.00;;;-142.39
4944;BMP280;2487;52.224;11.006;2022-08-21T07:26:09;51497.84;;;-142.39
4944;BMP280;2487;52.224;11.006;2022-08-21T07:28:35;51516.06;;;-142.39
4944;BMP280;2487;52.224;11.006;2022-08-21T07:31:02;51538.31;;;-142.39
4944;BMP280;2487;52.224;11.006;2022-08-21T07:35:56;51497.84;;;-142.39
4944;BMP280;2487;52.224;11.006;2022-08-21T07:38:22;51493.81;;;-142.39
4944;BMP280;2487;52.224;11.006;2022-08-21T07:40:49;51461.44;;;-142.39
4944;BMP280;2487;52.224;11.006;2022-08-21T07:43:16;51473.56;;;-142.39
4944;BMP280;2487;52.224;11.006;2022-08-21T07:45:44;51473.56;;;-142.39
4944;BMP280;2487;52.224;11.006;2022-08-21T07:48:10;51473.56;;;-142.39
4944;BMP280;2487;52.224;11.006;2022-08-21T07:50:36;51435.13;;;-142.39
4944;BMP280;2487;52.224;11.006;2022-08-21T07:53:02;51459.41;;;-142.39
4944;BMP280;2487;52.224;11.006;2022-08-21T07:55:28;51429.06;;;-142.39
4944;BMP280;2487;52.224;11.006;2022-08-21T07:57:54;51459.41;;;-142.39
4944;BMP280;2487;52.224;11.006;2022-08-21T08:00:27;51435.13;;;-142.39
4944;BMP280;2487;52.224;11.006;2022-08-21T08:02:55;51439.16;;;-142.39
4944;BMP280;2487;52.224;11.006;2022-08-21T08:05:27;51435.13;;;-142.39
4944;BMP280;2487;52.224;11.006;2022-08-21T08:07:53;51439.16;;;-142.39
4944;BMP280;2487;52.224;11.006;2022-08-21T08:10:20;51384.53;;;-142.39
4944;BMP280;2487;52.224;11.006;2022-08-21T08:12:46;51420.97;;;-142.39
4944;BMP280;2487;52.224;11.006;2022-08-21T08:15:17;51404.78;;;-142.39
4944;BMP280;2487;52.224;11.006;2022-08-21T08:17:43;51431.06;;;-142.39
4944;BMP280;2487;52.224;11.006;2022-08-21T08:20:10;51414.88;;;-142.39
4944;BMP280;2487;52.224;11.006;2022-08-21T08:22:37;51420.97;;;-142.39
4944;BMP280;2487;52.224;11.006;2022-08-21T08:25:05;51422.97;;;-142.39
4944;BMP280;2487;52.224;11.006;2022-08-21T08:27:31;51382.50;;;-142.39
4944;BMP280;2487;52.224;11.006;2022-08-21T08:29:57;51402.75;;;-142.39
4944;BMP280;2487;52.224;11.006;2022-08-21T08:32:23;51392.63;;;-142.39
4944;BMP280;2487;52.224;11.006;2022-08-21T08:34:49;51406.78;;;-142.39
4944;BMP280;2487;52.224;11.006;2022-08-21T08:37:18;51402.75;;;-142.39
4944;BMP280;2487;52.224;11.006;2022-08-21T08:39:45;51364.28;;;-142.39
4944;BMP280;2487;52.224;11.006;2022-08-21T08:42:14;51368.34;;;-142.39
4944;BMP280;2487;52.224;11.006;2022-08-21T08:44:45;51400.72;;;-142.39
4944;BMP280;2487;52.224;11.006;2022-08-21T08:47:14;51386.56;;;-142.39
4944;BMP280;2487;52.224;11.006;2022-08-21T08:52:27;51366.31;;;-142.39
4944;BMP280;2487;52.224;11.006;2022-08-21T08:55:18;51372.41;;;-142.39
4944;BMP280;2487;52.224;11.006;2022-08-21T08:57:47;51348.09;;;-142.39
4944;BMP280;2487;52.224;11.006;2022-08-21T09:00:16;51352.16;;;-142.39
4944;BMP280;2487;52.224;11.006;2022-08-21T09:02:43;51406.78;;;-142.39
4944;BMP280;2487;52.224;11.006;2022-08-21T09:13:26;51390.59;;;-142.39
4944;BMP280;2487;52.224;11.006;2022-08-21T09:16:30;51392.63;;;-142.39
4944;BMP280;2487;52.224;11.006;2022-08-21T09:27:24;51429.06;;;-142.39
4944;BMP280;2487;52.224;11.006;2022-08-21T09:29:52;51368.34;;;-142.39
4944;BMP280;2487;52.224;11.006;2022-08-21T09:32:28;51392.63;;;-142.39
4944;BMP280;2487;52.224;11.006;2022-08-21T09:35:19;51362.28;;;-142.39
4944;BMP280;2487;52.224;11.006;2022-08-21T09:37:53;51344.06;;;-142.39
4944;BMP280;2487;52.224;11.006;2022-08-21T09:45:28;51329.91;;;-142.39
4944;BMP280;2487;52.224;11.006;2022-08-21T09:47:53;51335.97;;;-142.39
4944;BMP280;2487;52.224;11.006;2022-08-21T09:50:26;51358.22;;;-142.39
4944;BMP280;2487;52.224;11.006;2022-08-21T09:52:58;51408.81;;;-142.39
4944;BMP280;2487;52.224;11.006;2022-08-21T09:55:33;51386.56;;;-142.39
4944;BMP280;2487;52.224;11.006;2022-08-21T09:58:19;51437.16;;;-142.39
4944;BMP280;2487;52.224;11.006;2022-08-21T10:01:00;51467.50;;;-142.39
4944;BMP280;2487;52.224;11.006;2022-08-21T10:03:27;51453.34;;;-142.39
4944;BMP280;2487;52.224;11.006;2022-08-21T10:06:01;51437.16;;;-142.39
4944;BMP280;2487;52.224;11.006;2022-08-21T10:08:33;51461.44;;;-142.39
4944;BMP280;2487;52.224;11.006;2022-08-21T10:11:05;51414.88;;;-142.39
4944;BMP280;2487;52.224;11.006;2022-08-21T10:22:18;51441.19;;;-142.39
4944;BMP280;2487;52.224;11.006;2022-08-21T10:25:01;51467.50;;;-142.39
4944;BMP280;2487;52.224;11.006;2022-08-21T10:30:18;51483.69;;;-142.39
4944;BMP280;2487;52.224;11.006;2022-08-21T10:35:31;51451.31;;;-142.39
4944;BMP280;2487;52.224;11.006;2022-08-21T10:46:48;51400.72;;;-142.39
4944;BMP280;2487;52.224;11.006;2022-08-21T11:00:35;51433.09;;;-142.39
4944;BMP280;2487;52.224;11.006;2022-08-21T11:03:11;51406.78;;;-142.39
4944;BMP280;2487;52.224;11.006;2022-08-21T11:08:17;51400.72;;;-142.39
4944;BMP280;2487;52.224;11.006;2022-08-21T11:10:52;51416.91;;;-142.39
4944;BMP280;2487;52.224;11.006;2022-08-21T11:13:24;51408.81;;;-142.39
4944;BMP280;2487;52.224;11.006;2022-08-21T11:16:16;51453.34;;;-142.39
4944;BMP280;2487;52.224;11.006;2022-08-21T11:18:55;51433.09;;;-142.39
4944;BMP280;2487;52.224;11.006;2022-08-21T11:21:52;51420.97;;;-142.39
4944;BMP280;2487;52.224;11.006;2022-08-21T11:24:29;51489.75;;;-142.39
4944;BMP280;2487;52.224;11.006;2022-08-21T11:27:04;51416.91;;;-142.39
4944;BMP280;2487;52.224;11.006;2022-08-21T11:29:35;51425.00;;;-142.39
4944;BMP280;2487;52.224;11.006;2022-08-21T11:46:13;51394.66;;;-142.39
4944;BMP280;2487;52.224;11.006;2022-08-21T11:57:18;51433.09;;;-142.39
4944;BMP280;2487;52.224;11.006;2022-08-21T12:00:05;51402.75;;;-142.39
4944;BMP280;2487;52.224;11.006;2022-08-21T12:02:52;51406.78;;;-142.39
4944;BMP280;2487;52.224;11.006;2022-08-21T12:05:34;51392.63;;;-142.39
4944;BMP280;2487;52.224;11.006;2022-08-21T12:08:14;51422.97;;;-142.39
4944;BMP280;2487;52.224;11.006;2022-08-21T12:11:04;51425.00;;;-142.39
4944;BMP280;2487;52.224;11.006;2022-08-21T12:13:40;51396.69;;;-142.39
4944;BMP280;2487;52.224;11.006;2022-08-21T12:16:13;51437.16;;;-142.39
4944;BMP280;2487;52.224;11.006;2022-08-21T12:18:40;51443.22;;;-142.39
4944;BMP280;2487;52.224;11.006;2022-08-21T12:21:23;51425.00;;;-142.39
4944;BMP280;2487;52.224;11.006;2022-08-21T12:24:15;51457.38;;;-142.39
4944;BMP280;2487;52.224;11.006;2022-08-21T12:26:57;51467.50;;;-142.39
4944;BMP280;2487;52.224;11.006;2022-08-21T12:39:59;51477.63;;;-142.39
4944;BMP280;2487;52.224;11.006;2022-08-21T12:45:02;51477.63;;;-142.39
4944;BMP280;2487;52.224;11.006;2022-08-21T12:47:43;51420.97;;;-142.39
4944;BMP280;2487;52.224;11.006;2022-08-21T12:50:18;51402.75;;;-142.39
4944;BMP280;2487;52.224;11.006;2022-08-21T12:55:26;51392.63;;;-142.39
4944;BMP280;2487;52.224;11.006;2022-08-21T12:57:52;51368.34;;;-142.39
4944;BMP280;2487;52.224;11.006;2022-08-21T13:00:23;51346.09;;;-142.39
4944;BMP280;2487;52.224;11.006;2022-08-21T13:02:50;51370.38;;;-142.39
4944;BMP280;2487;52.224;11.006;2022-08-21T13:05:26;51325.84;;;-142.39
4944;BMP280;2487;52.224;11.006;2022-08-21T13:07:53;51390.59;;;-142.39
4944;BMP280;2487;52.224;11.006;2022-08-21T13:10:31;51370.38;;;-142.39
4944;BMP280;2487;52.224;11.006;2022-08-21T13:13:00;51390.59;;;-142.39
4944;BMP280;2487;52.224;11.006;2022-08-21T13:15:36;51394.66;;;-142.39
4944;BMP280;2487;52.224;11.006;2022-08-21T13:18:04;51376.44;;;-142.39
4944;BMP280;2487;52.224;11.006;2022-08-21T13:20:38;51408.81;;;-142.39
4944;BMP280;2487;52.224;11.006;2022-08-21T13:23:28;51368.34;;;-142.39
4944;BMP280;2487;52.224;11.006;2022-08-21T13:25:55;51366.31;;;-142.39
4944;BMP280;2487;52.224;11.006;2022-08-21T13:28:21;51404.78;;;-142.39
4944;BMP280;2487;52.224;11.006;2022-08-21T13:30:50;51418.94;;;-142.39
4944;BMP280;2487;52.224;11.006;2022-08-21T13:33:19;51400.72;;;-142.39
4944;BMP280;2487;52.224;11.006;2022-08-21T13:36:03;51386.56;;;-142.39
4944;BMP280;2487;52.224;11.006;2022-08-21T13:38:31;51362.28;;;-142.39
4944;BMP280;2487;52.224;11.006;2022-08-21T13:41:02;51344.06;;;-142.39
4944;BMP280;2487;52.224;11.006;2022-08-21T13:43:32;51368.34;;;-142.39
4944;BMP280;2487;52.224;11.006;2022-08-21T13:45:58;51372.41;;;-142.39
4944;BMP280;2487;52.224;11.006;2022-08-21T13:48:27;51376.44;;;-142.39
4944;BMP280;2487;52.224;11.006;2022-08-21T13:50:54;51384.53;;;-142.39
4944;BMP280;2487;52.224;11.006;2022-08-21T13:53:46;51384.53;;;-142.39
4944;BMP280;2487;52.224;11.006;2022-08-21T13:56:30;51344.06;;;-142.39
4944;BMP280;2487;52.224;11.006;2022-08-21T13:58:57;51376.44;;;-142.39
4944;BMP280;2487;52.224;11.006;2022-08-21T14:01:27;51362.28;;;-142.39
4944;BMP280;2487;52.224;11.006;2022-08-21T14:03:57;51400.72;;;-142.39
4944;BMP280;2487;52.224;11.006;2022-08-21T14:06:27;51384.53;;;-142.39
4944;BMP280;2487;52.224;11.006;2022-08-21T14:09:03;51354.19;;;-142.39
4944;BMP280;2487;52.224;11.006;2022-08-21T14:11:34;51384.53;;;-142.39
4944;BMP280;2487;52.224;11.006;2022-08-21T14:14:16;51394.66;;;-142.39
4944;BMP280;2487;52.224;11.006;2022-08-21T14:16:52;51378.47;;;-142.39
4944;BMP280;2487;52.224;11.006;2022-08-21T14:21:47;51364.28;;;-142.39
4944;BMP280;2487;52.224;11.006;2022-08-21T14:24:26;51396.69;;;-142.39
4944;BMP280;2487;52.224;11.006;2022-08-21T14:26:55;51358.22;;;-142.39
4944;BMP280;2487;52.224;11.006;2022-08-21T14:29:26;51404.78;;;-142.39
4944;BMP280;2487;52.224;11.006;2022-08-21T14:31:55;51380.50;;;-142.39
4944;BMP280;2487;52.224;11.006;2022-08-21T14:34:24;51380.50;;;-142.39
4944;BMP280;2487;52.224;11.006;2022-08-21T14:36:50;51390.59;;;-142.39
4944;BMP280;2487;52.224;11.006;2022-08-21T14:39:16;51445.25;;;-142.39
4944;BMP280;2487;52.224;11.006;2022-08-21T14:41:42;51437.16;;;-142.39
4944;BMP280;2487;52.224;11.006;2022-08-21T14:44:09;51404.78;;;-142.39
4944;BMP280;2487;52.224;11.006;2022-08-21T14:46:36;51388.59;;;-142.39
4944;BMP280;2487;52.224;11.006;2022-08-21T14:49:03;51396.69;;;-142.39
4944;BMP280;2487;52.224;11.006;2022-08-21T14:51:29;51382.50;;;-142.39
4944;BMP280;2487;52.224;11.006;2022-08-21T14:53:55;51425.00;;;-142.39
4944;BMP280;2487;52.224;11.006;2022-08-21T14:56:21;51378.47;;;-142.39
4944;BMP280;2487;52.224;11.006;2022-08-21T14:58:49;51420.97;;;-142.39
4944;BMP280;2487;52.224;11.006;2022-08-21T15:01:18;51453.34;;;-142.39
4944;BMP280;2487;52.224;11.006;2022-08-21T15:03:47;51447.25;;;-142.39
4944;BMP280;2487;52.224;11.006;2022-08-21T15:06:14;51425.00;;;-142.39
4944;BMP280;2487;52.224;11.006;2022-08-21T15:08:41;51453.34;;;-142.39
4944;BMP280;2487;52.224;11.006;2022-08-21T15:11:08;51412.88;;;-142.39
4944;BMP280;2487;52.224;11.006;2022-08-21T15:13:36;51418.94;;;-142.39
4944;BMP280;2487;52.224;11.006;2022-08-21T15:16:03;51447.25;;;-142.39
4944;BMP280;2487;52.224;11.006;2022-08-21T15:18:30;51429.06;;;-142.39
4944;BMP280;2487;52.224;11.006;2022-08-21T15:20:56;51443.22;;;-142.39
4944;BMP280;2487;52.224;11.006;2022-08-21T15:23:22;51429.06;;;-142.39
4944;BMP280;2487;52.224;11.006;2022-08-21T15:25:48;51443.22;;;-142.39
4944;BMP280;2487;52.224;11.006;2022-08-21T15:28:16;51473.56;;;-142.39
4944;BMP280;2487;52.224;11.006;2022-08-21T15:30:43;51437.16;;;-142.39
4944;BMP280;2487;52.224;11.006;2022-08-21T15:33:09;51471.53;;;-142.39
4944;BMP280;2487;52.224;11.006;2022-08-21T15:35:36;51420.97;;;-142.39
4944;BMP280;2487;52.224;11.006;2022-08-21T15:38:02;51461.44;;;-142.39
4944;BMP280;2487;52.224;11.006;2022-08-21T15:40:28;51422.97;;;-142.39
4944;BMP280;2487;52.224;11.006;2022-08-21T15:43:00;51467.50;;;-142.39
4944;BMP280;2487;52.224;11.006;2022-08-21T15:45:27;51451.31;;;-142.39
4944;BMP280;2487;52.224;11.006;2022-08-21T15:47:53;51427.03;;;-142.39
4944;BMP280;2487;52.224;11.006;2022-08-21T15:50:19;51457.38;;;-142.39
4944;BMP280;2487;52.224;11.006;2022-08-21T15:52:46;51447.25;;;-142.39
4944;BMP280;2487;52.224;11.006;2022-08-21T15:55:12;51467.50;;;-142.39
4944;BMP280;2487;52.224;11.006;2022-08-21T15:57:43;51445.25;;;-142.39
4944;BMP280;2487;52.224;11.006;2022-08-21T16:00:16;51467.50;;;-142.39
4944;BMP280;2487;52.224;11.006;2022-08-21T16:02:46;51463.44;;;-142.39